Time;durP1;ratioP1;P1;durP2;ratioP2;P2;SDS_P1;SDS_P2;PMS_P1;PMS_P2;Temp;Humidity;BMP_temperature;BMP_pressure;BME280_temperature;BME280_humidity;BME280_pressure;Samples;Min_cycle;Max_cycle;Signal;HPM_P1;HPM_P2
2023/07/05 00:02:42;;;;;;;7.47;3.87;;;21.40;56.60;;;;;;20861588;28;20240;-67
2023/07/05 00:12:44;;;;;;;6.37;3.87;;;21.40;57.70;;;;;;20868758;28;20214;-67
2023/07/05 00:22:46;;;;;;;8.23;4.47;;;21.40;57.50;;;;;;20869458;28;20319;-66
2023/07/05 00:32:47;;;;;;;7.00;4.20;;;21.40;57.80;;;;;;20837368;28;20216;-71
2023/07/05 00:42:49;;;;;;;8.83;4.40;;;21.30;58.30;;;;;;20839207;28;20271;-70
2023/07/05 00:52:54;;;;;;;6.50;4.43;;;21.20;58.80;;;;;;20844353;28;20712;-65
2023/07/05 01:02:59;;;;;;;11.93;4.63;;;21.10;59.10;;;;;;20843475;28;20248;-65
2023/07/05 01:13:09;;;;;;;10.40;4.23;;;21.00;59.30;;;;;;20842528;28;20220;-61
2023/07/05 01:23:32;;;;;;;7.10;4.70;;;20.90;59.70;;;;;;20841933;28;20699;-59
2023/07/05 01:33:38;;;;;;;7.93;4.57;;;20.90;59.90;;;;;;20840957;28;20298;-62
2023/07/05 01:43:43;;;;;;;7.17;4.13;;;20.90;59.70;;;;;;20840346;28;20267;-61
2023/07/05 01:53:53;;;;;;;6.17;4.10;;;20.90;59.50;;;;;;20839597;28;20213;-67
2023/07/05 02:03:56;;;;;;;9.73;4.73;;;20.80;59.60;;;;;;20840428;28;20725;-71
2023/07/05 02:13:58;;;;;;;10.43;4.87;;;20.80;60.10;;;;;;20837631;28;20217;-71
2023/07/05 02:23:59;;;;;;;8.40;3.80;;;20.80;62.90;;;;;;20837325;28;20240;-70
2023/07/05 02:34:01;;;;;;;8.13;5.00;;;19.10;83.60;;;;;;20836129;28;20216;-69
2023/07/05 02:44:03;;;;;;;6.60;3.93;;;19.20;88.40;;;;;;20835380;28;20240;-70
2023/07/05 02:54:05;;;;;;;9.93;4.97;;;19.10;90.10;;;;;;20834887;28;20217;-63
2023/07/05 03:04:07;;;;;;;10.73;4.47;;;19.10;92.50;;;;;;20832653;28;20247;-66
2023/07/05 03:14:09;;;;;;;7.17;3.77;;;19.10;94.00;;;;;;20831974;28;20203;-65
2023/07/05 03:24:11;;;;;;;8.23;3.33;;;19.20;95.40;;;;;;20832703;28;20236;-62
2023/07/05 03:34:14;;;;;;;5.17;3.07;;;19.20;95.90;;;;;;20831839;28;20210;-63
2023/07/05 03:44:16;;;;;;;4.63;3.10;;;19.10;96.60;;;;;;20831070;28;20762;-62
2023/07/05 03:54:18;;;;;;;7.73;4.20;;;19.20;97.00;;;;;;20830755;28;20240;-63
2023/07/05 04:04:20;;;;;;;11.60;3.30;;;19.20;97.50;;;;;;20829764;28;20335;-63
2023/07/05 04:14:21;;;;;;;8.13;3.30;;;19.10;97.90;;;;;;20841277;28;20259;-63
2023/07/05 04:24:23;;;;;;;5.13;2.67;;;19.10;98.20;;;;;;20856860;28;20268;-68
2023/07/05 04:34:25;;;;;;;7.37;2.60;;;19.10;98.20;;;;;;20856136;28;20201;-69
2023/07/05 04:44:26;;;;;;;3.67;2.20;;;18.90;98.30;;;;;;20855802;28;20663;-67
2023/07/05 04:54:28;;;;;;;4.23;2.30;;;19.10;98.30;;;;;;20855105;28;20300;-66
2023/07/05 05:04:30;;;;;;;3.53;2.23;;;19.10;98.80;;;;;;20853323;28;20248;-62
2023/07/05 05:14:33;;;;;;;3.60;1.90;;;19.20;98.80;;;;;;20854679;28;20203;-66
2023/07/05 05:24:35;;;;;;;2.97;1.80;;;19.20;98.20;;;;;;20848733;28;20730;-72
2023/07/05 05:34:36;;;;;;;6.53;2.87;;;19.40;97.90;;;;;;20840511;28;20306;-69
2023/07/05 05:44:38;;;;;;;3.13;2.20;;;19.50;97.80;;;;;;20839713;28;20245;-73
2023/07/05 05:54:40;;;;;;;2.47;1.70;;;19.50;98.10;;;;;;20839320;28;20689;-65
2023/07/05 06:04:42;;;;;;;7.40;2.00;;;19.80;98.10;;;;;;20836934;28;20667;-64
2023/07/05 06:14:43;;;;;;;4.47;2.10;;;20.20;97.90;;;;;;20835924;28;20212;-63
2023/07/05 06:24:45;;;;;;;4.50;2.20;;;20.50;97.80;;;;;;20836276;28;20249;-68
2023/07/05 06:34:48;;;;;;;5.80;2.50;;;20.30;98.00;;;;;;20834510;28;20206;-68
2023/07/05 06:44:49;;;;;;;5.00;2.40;;;20.10;98.50;;;;;;20834642;28;20235;-64
2023/07/05 06:54:51;;;;;;;4.13;2.73;;;20.20;98.80;;;;;;20834060;28;20215;-67
2023/07/05 07:04:53;;;;;;;3.13;2.10;;;20.10;98.90;;;;;;20834218;28;20271;-66
2023/07/05 07:14:55;;;;;;;4.37;2.23;;;20.20;99.00;;;;;;20835113;28;20251;-67
2023/07/05 07:24:56;;;;;;;6.47;3.10;;;20.70;98.50;;;;;;20831959;28;20335;-69
2023/07/05 07:34:58;;;;;;;3.63;2.97;;;20.50;98.60;;;;;;20830988;28;20208;-67
2023/07/05 07:45:00;;;;;;;2.87;2.40;;;20.40;98.80;;;;;;20830218;28;20242;-67
2023/07/05 07:55:02;;;;;;;3.77;3.10;;;20.50;98.50;;;;;;20829531;28;20298;-70
2023/07/05 08:05:16;;;;;;;1.97;1.70;;;20.90;98.40;;;;;;20828984;28;20244;-64
2023/07/05 08:15:18;;;;;;;2.20;2.00;;;21.10;97.70;;;;;;20828772;28;20311;-65
2023/07/05 08:25:19;;;;;;;2.60;2.10;;;21.00;96.40;;;;;;20828922;28;20251;-66
2023/07/05 08:35:21;;;;;;;4.30;2.60;;;21.00;93.60;;;;;;20828238;28;20247;-63
2023/07/05 08:45:35;;;;;;;4.60;3.07;;;21.30;92.40;;;;;;20827555;28;20263;-70
2023/07/05 08:56:06;;;;;;;4.57;3.30;;;21.30;91.20;;;;;;20827615;28;20212;-64
2023/07/05 09:06:22;;;;;;;5.47;4.53;;;21.10;89.20;;;;;;20833718;28;20719;-72
2023/07/05 09:16:52;;;;;;;6.77;4.33;;;21.00;82.80;;;;;;20841824;28;20201;-66
2023/07/05 09:26:58;;;;;;;5.50;4.37;;;21.00;74.90;;;;;;20841173;28;20239;-72
2023/07/05 09:37:10;;;;;;;4.33;3.40;;;21.10;73.50;;;;;;20839886;28;20208;-67
2023/07/05 09:47:12;;;;;;;4.90;3.63;;;21.30;67.40;;;;;;20840206;28;20262;-73
2023/07/05 09:57:23;;;;;;;5.73;4.10;;;21.30;63.70;;;;;;20839888;28;20268;-69
2023/07/05 10:07:28;;;;;;;3.93;3.10;;;21.60;63.10;;;;;;20837517;28;20787;-68
2023/07/05 10:17:41;;;;;;;4.80;3.27;;;21.80;59.90;;;;;;20836697;28;20264;-72
2023/07/05 10:27:48;;;;;;;5.07;3.90;;;22.10;58.40;;;;;;20836090;28;20221;-65
2023/07/05 10:37:51;;;;;;;7.83;3.30;;;22.30;56.90;;;;;;20835787;28;20239;-64
2023/07/05 10:47:53;;;;;;;4.43;3.20;;;22.00;56.10;;;;;;20834867;28;20296;-67
2023/07/05 10:58:14;;;;;;;4.60;3.40;;;21.80;55.60;;;;;;20833465;28;20233;-70
2023/07/05 11:08:26;;;;;;;5.20;3.47;;;22.20;56.10;;;;;;20832815;28;20233;-63
2023/07/05 11:18:28;;;;;;;3.63;3.00;;;22.00;54.80;;;;;;20831880;28;20232;-67
2023/07/05 11:28:36;;;;;;;4.40;3.13;;;22.20;54.60;;;;;;20830329;28;20247;-69
2023/07/05 11:38:44;;;;;;;3.17;2.60;;;22.10;51.80;;;;;;20829985;28;20267;-71
2023/07/05 11:48:46;;;;;;;3.47;2.40;;;22.20;49.90;;;;;;20829620;28;20223;-67
2023/07/05 11:58:51;;;;;;;5.17;2.60;;;22.40;49.20;;;;;;20829240;28;20268;-64
2023/07/05 12:08:59;;;;;;;3.77;2.80;;;22.60;48.50;;;;;;20828411;28;20315;-67
2023/07/05 12:19:05;;;;;;;4.70;3.10;;;22.90;47.60;;;;;;20827249;28;20575;-66
2023/07/05 12:29:24;;;;;;;4.23;2.80;;;23.00;47.90;;;;;;20828576;28;20569;-68
2023/07/05 12:39:26;;;;;;;4.27;2.60;;;23.30;47.30;;;;;;20842094;28;20721;-69
2023/07/05 12:49:30;;;;;;;7.03;3.10;;;22.80;45.40;;;;;;20843582;28;20210;-70
2023/07/05 12:59:35;;;;;;;3.10;2.37;;;22.70;45.00;;;;;;20842761;28;20272;-72
2023/07/05 13:09:50;;;;;;;4.50;2.33;;;22.70;45.50;;;;;;20844203;28;20229;-71
2023/07/05 13:20:22;;;;;;;4.87;2.07;;;22.70;44.60;;;;;;20841919;28;20247;-72
2023/07/05 13:30:25;;;;;;;3.80;2.27;;;22.90;44.60;;;;;;20838968;28;20703;-72
2023/07/05 13:40:29;;;;;;;3.20;2.20;;;23.10;44.80;;;;;;20839837;28;20232;-72
2023/07/05 13:50:33;;;;;;;3.50;2.10;;;23.20;44.40;;;;;;20838483;28;20268;-71
2023/07/05 14:00:36;;;;;;;4.90;2.70;;;23.20;44.60;;;;;;20838273;28;20291;-71
2023/07/05 14:10:43;;;;;;;7.93;2.40;;;23.50;44.90;;;;;;20837510;28;20335;-72
2023/07/05 14:20:47;;;;;;;6.13;2.77;;;23.60;44.90;;;;;;20837192;28;20565;-68
2023/07/05 14:30:51;;;;;;;5.63;2.10;;;24.00;44.00;;;;;;20835105;28;20258;-71
2023/07/05 14:40:53;;;;;;;5.07;2.60;;;25.00;42.90;;;;;;20833819;28;20323;-67
2023/07/05 14:50:56;;;;;;;3.57;2.50;;;24.70;42.90;;;;;;20833734;28;20668;-67
2023/07/05 15:00:59;;;;;;;10.13;2.60;;;24.30;43.60;;;;;;20831719;28;20699;-68
2023/07/05 15:11:00;;;;;;;4.93;2.00;;;24.30;43.30;;;;;;20828486;28;20262;-68
2023/07/05 15:21:02;;;;;;;3.87;2.47;;;24.50;43.10;;;;;;20830787;28;20263;-69
2023/07/05 15:31:05;;;;;;;3.73;2.20;;;24.40;43.30;;;;;;20835803;28;20311;-71
2023/07/05 15:41:07;;;;;;;2.87;2.10;;;24.90;42.80;;;;;;20868024;28;20315;-70
2023/07/05 15:51:10;;;;;;;4.37;2.83;;;24.70;42.60;;;;;;20869707;28;20291;-72
2023/07/05 16:01:20;;;;;;;6.00;2.50;;;24.20;43.30;;;;;;20858038;28;20232;-74
2023/07/05 16:11:23;;;;;;;3.85;2.40;;;24.30;43.60;;;;;;20865169;28;20239;-66
2023/07/05 16:21:25;;;;;;;4.45;2.40;;;27.80;40.60;;;;;;20871532;28;20286;-72
2023/07/05 16:31:28;;;;;;;4.40;2.22;;;28.60;38.50;;;;;;20858660;28;20220;-75
2023/07/05 16:41:30;;;;;;;4.45;2.20;;;26.80;40.20;;;;;;20865699;28;20236;-71
2023/07/05 16:51:32;;;;;;;4.27;2.50;;;26.20;40.90;;;;;;20861564;28;20215;-67
2023/07/05 17:01:34;;;;;;;7.13;3.40;;;24.90;41.70;;;;;;20894747;28;20250;-68
2023/07/05 17:11:36;;;;;;;3.77;2.30;;;24.60;42.50;;;;;;20872018;28;20243;-69
2023/07/05 17:21:38;;;;;;;4.80;2.45;;;26.00;40.50;;;;;;20897046;28;20236;-67
2023/07/05 17:31:40;;;;;;;6.80;2.63;;;27.70;39.60;;;;;;20868632;28;20652;-68
2023/07/05 17:41:42;;;;;;;4.47;2.40;;;26.50;41.70;;;;;;20839789;28;20691;-69
2023/07/05 17:51:44;;;;;;;2.83;2.30;;;27.50;39.60;;;;;;20864793;28;20292;-66
2023/07/05 18:01:46;;;;;;;3.47;2.40;;;29.00;36.90;;;;;;20880909;28;20232;-69
2023/07/05 18:11:48;;;;;;;3.83;2.70;;;25.90;40.50;;;;;;20919899;28;20790;-69
2023/07/05 18:21:50;;;;;;;4.30;2.30;;;24.60;42.20;;;;;;20916997;28;20232;-64
2023/07/05 18:31:54;;;;;;;2.90;2.40;;;24.00;43.20;;;;;;20883225;28;20201;-68
2023/07/05 18:41:56;;;;;;;3.73;2.60;;;23.50;44.00;;;;;;20831701;28;20274;-69
2023/07/05 18:51:58;;;;;;;3.73;2.30;;;23.10;44.70;;;;;;20832373;28;20688;-67
2023/07/05 19:02:00;;;;;;;5.80;2.47;;;22.80;45.00;;;;;;20831086;28;20232;-64
2023/07/05 19:12:03;;;;;;;3.80;2.30;;;22.50;45.60;;;;;;20812800;28;20243;-69
2023/07/05 19:22:05;;;;;;;5.43;2.70;;;22.30;46.20;;;;;;20828945;28;20605;-63
2023/07/05 19:32:08;;;;;;;6.83;2.23;;;22.00;46.80;;;;;;20859141;28;20247;-66
2023/07/05 19:42:10;;;;;;;3.70;2.53;;;21.80;47.40;;;;;;20911028;28;20234;-65
2023/07/05 19:52:13;;;;;;;3.03;2.43;;;21.50;47.90;;;;;;20887765;28;20664;-67
2023/07/05 20:02:15;;;;;;;4.30;2.40;;;21.40;48.30;;;;;;20827238;28;20239;-68
2023/07/05 20:12:21;;;;;;;4.27;2.20;;;21.30;48.90;;;;;;20908107;28;20238;-63
2023/07/05 20:22:22;;;;;;;4.03;2.13;;;21.30;49.30;;;;;;20908413;28;20746;-62
2023/07/05 20:32:24;;;;;;;4.37;2.47;;;21.20;49.60;;;;;;20909108;28;20211;-66
2023/07/05 20:42:26;;;;;;;5.00;2.47;;;21.10;50.00;;;;;;20908951;28;20247;-63
2023/07/05 20:52:28;;;;;;;4.27;2.30;;;20.80;50.00;;;;;;20908572;28;20315;-61
2023/07/05 21:02:29;;;;;;;4.70;2.40;;;20.80;50.40;;;;;;20904600;28;20278;-62
2023/07/05 21:12:33;;;;;;;4.03;2.30;;;20.60;50.50;;;;;;20923030;28;20594;-61
2023/07/05 21:22:35;;;;;;;4.60;2.67;;;20.40;50.70;;;;;;20920823;28;20354;-64
2023/07/05 21:32:41;;;;;;;5.40;2.90;;;20.20;51.20;;;;;;20923832;28;20207;-63
2023/07/05 21:42:43;;;;;;;5.23;2.80;;;20.00;52.20;;;;;;20923606;28;20270;-63
2023/07/05 21:52:45;;;;;;;3.83;2.70;;;19.50;53.90;;;;;;20923136;28;20209;-63
2023/07/05 22:02:48;;;;;;;4.70;2.80;;;19.10;55.10;;;;;;20921343;28;20349;-63
2023/07/05 22:12:52;;;;;;;4.67;2.50;;;18.90;56.00;;;;;;20920295;28;20301;-67
2023/07/05 22:22:54;;;;;;;5.90;3.37;;;18.80;56.80;;;;;;20920671;28;20296;-66
2023/07/05 22:32:56;;;;;;;3.50;2.67;;;18.70;57.50;;;;;;20919632;28;20344;-63
2023/07/05 22:42:58;;;;;;;5.50;2.50;;;18.50;58.90;;;;;;20918847;28;20596;-65
2023/07/05 22:53:00;;;;;;;3.93;2.77;;;18.20;59.60;;;;;;20918388;28;20255;-63
2023/07/05 23:03:02;;;;;;;4.63;2.67;;;18.30;59.80;;;;;;20916922;28;20333;-61
2023/07/05 23:13:04;;;;;;;4.03;2.57;;;18.30;59.50;;;;;;20916332;28;20296;-63
2023/07/05 23:23:07;;;;;;;6.53;3.20;;;18.30;59.50;;;;;;20915250;28;20241;-67
2023/07/05 23:33:09;;;;;;;6.20;2.60;;;18.20;59.90;;;;;;20897560;28;20207;-63
2023/07/05 23:43:12;;;;;;;6.40;2.77;;;18.10;61.00;;;;;;20914273;28;20250;-62
2023/07/05 23:53:15;;;;;;;5.50;3.03;;;17.90;62.30;;;;;;20913866;28;20220;-63
